sensor_id;sensor_type;location;lat;lon;timestamp;temperature;humidity
75685;HTU21D;64298;46.050;38.164;2023-03-23T00:01:12;9.54;74.66
75685;HTU21D;64298;46.050;38.164;2023-03-23T00:03:42;9.51;74.69
75685;HTU21D;64298;46.050;38.164;2023-03-23T00:06:08;9.51;74.76
75685;HTU21D;64298;46.050;38.164;2023-03-23T00:08:38;9.50;74.78
75685;HTU21D;64298;46.050;38.164;2023-03-23T00:11:30;9.51;74.82
75685;HTU21D;64298;46.050;38.164;2023-03-23T00:13:59;9.50;74.82
75685;HTU21D;64298;46.050;38.164;2023-03-23T00:16:31;9.52;74.85
75685;HTU21D;64298;46.050;38.164;2023-03-23T00:19:03;9.52;74.89
75685;HTU21D;64298;46.050;38.164;2023-03-23T00:21:32;9.52;74.93
75685;HTU21D;64298;46.050;38.164;2023-03-23T00:24:18;9.52;75.01
75685;HTU21D;64298;46.050;38.164;2023-03-23T00:26:46;9.53;74.99
75685;HTU21D;64298;46.050;38.164;2023-03-23T00:29:20;9.54;75.02
75685;HTU21D;64298;46.050;38.164;2023-03-23T00:32:05;9.56;75.02
75685;HTU21D;64298;46.050;38.164;2023-03-23T00:34:32;9.57;75.05
75685;HTU21D;64298;46.050;38.164;2023-03-23T00:36:59;9.59;75.09
75685;HTU21D;64298;46.050;38.164;2023-03-23T00:39:27;9.59;75.08
75685;HTU21D;64298;46.050;38.164;2023-03-23T00:41:54;9.61;75.07
75685;HTU21D;64298;46.050;38.164;2023-03-23T00:44:30;9.63;75.05
75685;HTU21D;64298;46.050;38.164;2023-03-23T00:46:57;9.63;75.01
75685;HTU21D;64298;46.050;38.164;2023-03-23T00:49:25;9.65;74.96
75685;HTU21D;64298;46.050;38.164;2023-03-23T00:51:56;9.67;74.90
75685;HTU21D;64298;46.050;38.164;2023-03-23T00:54:23;9.68;74.86
75685;HTU21D;64298;46.050;38.164;2023-03-23T00:56:50;9.70;74.80
75685;HTU21D;64298;46.050;38.164;2023-03-23T00:59:16;9.70;74.77
75685;HTU21D;64298;46.050;38.164;2023-03-23T01:01:43;9.70;74.76
75685;HTU21D;64298;46.050;38.164;2023-03-23T01:04:10;9.71;74.76
75685;HTU21D;64298;46.050;38.164;2023-03-23T01:06:39;9.72;74.76
75685;HTU21D;64298;46.050;38.164;2023-03-23T01:09:08;9.75;74.71
75685;HTU21D;64298;46.050;38.164;2023-03-23T01:11:35;9.75;74.68
75685;HTU21D;64298;46.050;38.164;2023-03-23T01:14:01;9.76;74.67
75685;HTU21D;64298;46.050;38.164;2023-03-23T01:16:27;9.77;74.66
75685;HTU21D;64298;46.050;38.164;2023-03-23T01:18:53;9.77;74.64
75685;HTU21D;64298;46.050;38.164;2023-03-23T01:21:20;9.78;74.60
75685;HTU21D;64298;46.050;38.164;2023-03-23T01:24:05;9.80;74.57
75685;HTU21D;64298;46.050;38.164;2023-03-23T01:26:31;9.80;74.54
75685;HTU21D;64298;46.050;38.164;2023-03-23T01:28:57;9.80;74.54
75685;HTU21D;64298;46.050;38.164;2023-03-23T01:31:26;9.82;74.57
75685;HTU21D;64298;46.050;38.164;2023-03-23T01:33:52;9.82;74.57
75685;HTU21D;64298;46.050;38.164;2023-03-23T01:36:23;9.82;74.55
75685;HTU21D;64298;46.050;38.164;2023-03-23T01:38:50;9.83;74.56
75685;HTU21D;64298;46.050;38.164;2023-03-23T01:41:18;9.83;74.55
75685;HTU21D;64298;46.050;38.164;2023-03-23T01:46:38;9.83;74.52
75685;HTU21D;64298;46.050;38.164;2023-03-23T01:49:17;9.83;74.59
75685;HTU21D;64298;46.050;38.164;2023-03-23T01:51:51;9.82;74.57
75685;HTU21D;64298;46.050;38.164;2023-03-23T01:54:20;9.82;74.56
75685;HTU21D;64298;46.050;38.164;2023-03-23T01:56:54;9.82;74.57
75685;HTU21D;64298;46.050;38.164;2023-03-23T01:59:22;9.83;74.53
75685;HTU21D;64298;46.050;38.164;2023-03-23T02:02:00;9.84;74.55
75685;HTU21D;64298;46.050;38.164;2023-03-23T02:04:29;9.82;74.58
75685;HTU21D;64298;46.050;38.164;2023-03-23T02:06:57;9.79;74.60
75685;HTU21D;64298;46.050;38.164;2023-03-23T02:09:25;9.79;74.64
75685;HTU21D;64298;46.050;38.164;2023-03-23T02:11:52;9.77;74.67
75685;HTU21D;64298;46.050;38.164;2023-03-23T02:14:19;9.78;74.65
75685;HTU21D;64298;46.050;38.164;2023-03-23T02:22:32;9.77;74.76
75685;HTU21D;64298;46.050;38.164;2023-03-23T02:28:19;9.76;74.79
75685;HTU21D;64298;46.050;38.164;2023-03-23T02:31:13;9.76;74.86
75685;HTU21D;64298;46.050;38.164;2023-03-23T02:33:49;9.75;74.88
75685;HTU21D;64298;46.050;38.164;2023-03-23T02:39:01;9.77;74.87
75685;HTU21D;64298;46.050;38.164;2023-03-23T02:42:02;9.76;74.80
75685;HTU21D;64298;46.050;38.164;2023-03-23T02:44:32;9.77;74.70
75685;HTU21D;64298;46.050;38.164;2023-03-23T02:46:59;9.78;74.67
75685;HTU21D;64298;46.050;38.164;2023-03-23T02:49:28;9.79;74.64
75685;HTU21D;64298;46.050;38.164;2023-03-23T02:51:59;9.82;74.52
75685;HTU21D;64298;46.050;38.164;2023-03-23T02:54:26;9.83;74.45
75685;HTU21D;64298;46.050;38.164;2023-03-23T02:56:55;9.86;74.37
75685;HTU21D;64298;46.050;38.164;2023-03-23T02:59:26;9.89;74.31
75685;HTU21D;64298;46.050;38.164;2023-03-23T03:04:40;9.92;74.15
75685;HTU21D;64298;46.050;38.164;2023-03-23T03:07:26;9.95;74.15
75685;HTU21D;64298;46.050;38.164;2023-03-23T03:09:59;9.96;74.06
75685;HTU21D;64298;46.050;38.164;2023-03-23T03:15:11;9.97;74.02
75685;HTU21D;64298;46.050;38.164;2023-03-23T03:17:47;9.98;74.00
75685;HTU21D;64298;46.050;38.164;2023-03-23T03:20:16;9.99;73.96
75685;HTU21D;64298;46.050;38.164;2023-03-23T03:22:44;10.01;73.96
75685;HTU21D;64298;46.050;38.164;2023-03-23T03:25:28;10.03;73.93
75685;HTU21D;64298;46.050;38.164;2023-03-23T03:27:56;10.04;73.90
75685;HTU21D;64298;46.050;38.164;2023-03-23T03:30:36;9.99;73.93
75685;HTU21D;64298;46.050;38.164;2023-03-23T03:33:03;9.98;74.02
75685;HTU21D;64298;46.050;38.164;2023-03-23T03:35:30;9.99;74.05
75685;HTU21D;64298;46.050;38.164;2023-03-23T03:38:05;10.00;74.05
75685;HTU21D;64298;46.050;38.164;2023-03-23T03:40:31;10.03;73.99
75685;HTU21D;64298;46.050;38.164;2023-03-23T03:42:56;10.04;73.99
75685;HTU21D;64298;46.050;38.164;2023-03-23T03:45:22;10.06;74.00
75685;HTU21D;64298;46.050;38.164;2023-03-23T03:47:49;10.07;74.01
75685;HTU21D;64298;46.050;38.164;2023-03-23T03:50:16;10.09;74.03
75685;HTU21D;64298;46.050;38.164;2023-03-23T03:52:42;10.10;74.02
75685;HTU21D;64298;46.050;38.164;2023-03-23T03:55:09;10.11;74.07
75685;HTU21D;64298;46.050;38.164;2023-03-23T03:57:38;10.13;74.11
75685;HTU21D;64298;46.050;38.164;2023-03-23T04:00:06;10.14;74.15
75685;HTU21D;64298;46.050;38.164;2023-03-23T04:02:50;10.15;74.20
75685;HTU21D;64298;46.050;38.164;2023-03-23T04:05:29;10.12;74.26
75685;HTU21D;64298;46.050;38.164;2023-03-23T04:07:55;10.12;74.38
75685;HTU21D;64298;46.050;38.164;2023-03-23T04:10:29;10.14;74.40
75685;HTU21D;64298;46.050;38.164;2023-03-23T04:12:55;10.16;74.37
75685;HTU21D;64298;46.050;38.164;2023-03-23T04:15:40;10.21;74.32
75685;HTU21D;64298;46.050;38.164;2023-03-23T04:18:07;10.23;74.27
75685;HTU21D;64298;46.050;38.164;2023-03-23T04:20:35;10.25;74.26
75685;HTU21D;64298;46.050;38.164;2023-03-23T04:23:04;10.26;74.24
75685;HTU21D;64298;46.050;38.164;2023-03-23T04:25:32;10.28;74.28
75685;HTU21D;64298;46.050;38.164;2023-03-23T04:27:59;10.33;74.26
75685;HTU21D;64298;46.050;38.164;2023-03-23T04:30:31;10.34;74.28
75685;HTU21D;64298;46.050;38.164;2023-03-23T04:33:06;10.35;74.28
75685;HTU21D;64298;46.050;38.164;2023-03-23T04:35:32;10.38;74.27
75685;HTU21D;64298;46.050;38.164;2023-03-23T04:38:08;10.42;74.22
75685;HTU21D;64298;46.050;38.164;2023-03-23T04:40:53;10.43;74.20
75685;HTU21D;64298;46.050;38.164;2023-03-23T04:43:52;10.46;74.16
75685;HTU21D;64298;46.050;38.164;2023-03-23T04:46:38;10.48;74.15
75685;HTU21D;64298;46.050;38.164;2023-03-23T04:49:11;10.52;74.15
75685;HTU21D;64298;46.050;38.164;2023-03-23T04:51:39;10.55;74.09
75685;HTU21D;64298;46.050;38.164;2023-03-23T04:54:17;10.57;74.07
75685;HTU21D;64298;46.050;38.164;2023-03-23T04:57:01;10.60;74.02
75685;HTU21D;64298;46.050;38.164;2023-03-23T04:59:27;10.65;73.96
75685;HTU21D;64298;46.050;38.164;2023-03-23T05:02:16;10.70;73.89
75685;HTU21D;64298;46.050;38.164;2023-03-23T05:04:45;10.73;73.79
75685;HTU21D;64298;46.050;38.164;2023-03-23T05:07:15;10.79;73.71
75685;HTU21D;64298;46.050;38.164;2023-03-23T05:09:47;10.82;73.64
75685;HTU21D;64298;46.050;38.164;2023-03-23T05:12:16;10.88;73.51
75685;HTU21D;64298;46.050;38.164;2023-03-23T05:14:51;10.94;73.46
75685;HTU21D;64298;46.050;38.164;2023-03-23T05:17:20;10.98;73.34
75685;HTU21D;64298;46.050;38.164;2023-03-23T05:19:50;11.04;73.24
75685;HTU21D;64298;46.050;38.164;2023-03-23T05:22:33;11.11;72.95
75685;HTU21D;64298;46.050;38.164;2023-03-23T05:25:03;11.13;72.87
75685;HTU21D;64298;46.050;38.164;2023-03-23T05:27:33;11.19;72.70
75685;HTU21D;64298;46.050;38.164;2023-03-23T05:30:05;11.24;72.51
75685;HTU21D;64298;46.050;38.164;2023-03-23T05:32:35;11.30;72.38
75685;HTU21D;64298;46.050;38.164;2023-03-23T05:35:19;11.37;72.11
75685;HTU21D;64298;46.050;38.164;2023-03-23T05:37:48;11.43;72.08
75685;HTU21D;64298;46.050;38.164;2023-03-23T05:40:15;11.48;71.94
75685;HTU21D;64298;46.050;38.164;2023-03-23T05:42:45;11.55;71.74
75685;HTU21D;64298;46.050;38.164;2023-03-23T05:45:15;11.62;71.46
75685;HTU21D;64298;46.050;38.164;2023-03-23T05:47:44;11.68;71.33
75685;HTU21D;64298;46.050;38.164;2023-03-23T05:50:16;11.76;71.29
75685;HTU21D;64298;46.050;38.164;2023-03-23T05:52:43;11.85;70.86
75685;HTU21D;64298;46.050;38.164;2023-03-23T05:55:11;11.90;70.43
75685;HTU21D;64298;46.050;38.164;2023-03-23T05:57:40;11.97;70.35
75685;HTU21D;64298;46.050;38.164;2023-03-23T06:00:17;12.02;70.35
75685;HTU21D;64298;46.050;38.164;2023-03-23T06:02:55;12.07;70.29
75685;HTU21D;64298;46.050;38.164;2023-03-23T06:05:30;12.15;70.15
75685;HTU21D;64298;46.050;38.164;2023-03-23T06:07:57;12.20;69.96
75685;HTU21D;64298;46.050;38.164;2023-03-23T06:10:24;12.28;69.78
75685;HTU21D;64298;46.050;38.164;2023-03-23T06:13:00;12.35;69.45
75685;HTU21D;64298;46.050;38.164;2023-03-23T06:15:38;12.36;69.34
75685;HTU21D;64298;46.050;38.164;2023-03-23T06:18:16;12.40;69.04
75685;HTU21D;64298;46.050;38.164;2023-03-23T06:21:03;12.42;69.04
75685;HTU21D;64298;46.050;38.164;2023-03-23T06:24:05;12.45;68.98
75685;HTU21D;64298;46.050;38.164;2023-03-23T06:26:34;12.48;68.95
75685;HTU21D;64298;46.050;38.164;2023-03-23T06:29:05;12.51;68.70
75685;HTU21D;64298;46.050;38.164;2023-03-23T06:31:47;12.57;68.66
75685;HTU21D;64298;46.050;38.164;2023-03-23T06:34:14;12.63;68.65
75685;HTU21D;64298;46.050;38.164;2023-03-23T06:36:58;12.70;68.47
75685;HTU21D;64298;46.050;38.164;2023-03-23T06:39:50;12.74;68.13
75685;HTU21D;64298;46.050;38.164;2023-03-23T06:42:43;12.77;67.98
75685;HTU21D;64298;46.050;38.164;2023-03-23T06:45:35;12.84;68.03
75685;HTU21D;64298;46.050;38.164;2023-03-23T06:48:33;12.94;67.94
75685;HTU21D;64298;46.050;38.164;2023-03-23T06:51:00;13.01;67.69
75685;HTU21D;64298;46.050;38.164;2023-03-23T06:53:27;13.05;67.27
75685;HTU21D;64298;46.050;38.164;2023-03-23T06:55:56;13.11;67.27
75685;HTU21D;64298;46.050;38.164;2023-03-23T06:58:22;13.20;67.02
75685;HTU21D;64298;46.050;38.164;2023-03-23T07:00:55;13.25;66.81
75685;HTU21D;64298;46.050;38.164;2023-03-23T07:03:32;13.30;66.74
75685;HTU21D;64298;46.050;38.164;2023-03-23T07:05:59;13.36;66.70
75685;HTU21D;64298;46.050;38.164;2023-03-23T07:08:30;13.41;66.62
75685;HTU21D;64298;46.050;38.164;2023-03-23T07:10:57;13.49;66.44
75685;HTU21D;64298;46.050;38.164;2023-03-23T07:13:27;13.58;66.21
75685;HTU21D;64298;46.050;38.164;2023-03-23T07:15:59;13.65;65.94
75685;HTU21D;64298;46.050;38.164;2023-03-23T07:18:27;13.73;65.38
75685;HTU21D;64298;46.050;38.164;2023-03-23T07:20:56;13.79;64.74
75685;HTU21D;64298;46.050;38.164;2023-03-23T07:23:29;13.85;65.14
75685;HTU21D;64298;46.050;38.164;2023-03-23T07:26:00;13.97;64.86
75685;HTU21D;64298;46.050;38.164;2023-03-23T07:28:33;14.14;64.67
75685;HTU21D;64298;46.050;38.164;2023-03-23T07:31:07;14.28;64.60
75685;HTU21D;64298;46.050;38.164;2023-03-23T07:33:35;14.40;64.08
75685;HTU21D;64298;46.050;38.164;2023-03-23T07:36:02;14.47;63.77
75685;HTU21D;64298;46.050;38.164;2023-03-23T07:38:29;14.49;63.11
75685;HTU21D;64298;46.050;38.164;2023-03-23T07:40:57;14.58;62.87
75685;HTU21D;64298;46.050;38.164;2023-03-23T07:43:24;14.72;62.91
75685;HTU21D;64298;46.050;38.164;2023-03-23T07:45:53;14.83;62.15
75685;HTU21D;64298;46.050;38.164;2023-03-23T07:48:22;14.91;62.05
75685;HTU21D;64298;46.050;38.164;2023-03-23T07:50:48;14.97;61.97
75685;HTU21D;64298;46.050;38.164;2023-03-23T07:53:16;14.97;62.12
75685;HTU21D;64298;46.050;38.164;2023-03-23T07:55:49;14.99;61.89
75685;HTU21D;64298;46.050;38.164;2023-03-23T07:58:46;14.97;61.86
75685;HTU21D;64298;46.050;38.164;2023-03-23T08:01:12;14.93;61.97
75685;HTU21D;64298;46.050;38.164;2023-03-23T08:03:42;14.91;61.99
75685;HTU21D;64298;46.050;38.164;2023-03-23T08:06:37;14.87;61.64
75685;HTU21D;64298;46.050;38.164;2023-03-23T08:09:34;14.84;62.00
75685;HTU21D;64298;46.050;38.164;2023-03-23T08:12:29;14.91;62.02
75685;HTU21D;64298;46.050;38.164;2023-03-23T08:15:14;14.93;61.54
75685;HTU21D;64298;46.050;38.164;2023-03-23T08:17:50;14.94;61.29
75685;HTU21D;64298;46.050;38.164;2023-03-23T08:20:37;14.97;61.39
75685;HTU21D;64298;46.050;38.164;2023-03-23T08:23:21;15.00;61.34
75685;HTU21D;64298;46.050;38.164;2023-03-23T08:26:20;15.10;61.41
75685;HTU21D;64298;46.050;38.164;2023-03-23T08:29:04;15.22;60.92
75685;HTU21D;64298;46.050;38.164;2023-03-23T08:31:43;15.28;60.69
75685;HTU21D;64298;46.050;38.164;2023-03-23T08:34:48;15.30;60.22
75685;HTU21D;64298;46.050;38.164;2023-03-23T08:37:33;15.37;60.67
75685;HTU21D;64298;46.050;38.164;2023-03-23T08:40:25;15.43;59.98
75685;HTU21D;64298;46.050;38.164;2023-03-23T08:42:58;15.46;60.03
75685;HTU21D;64298;46.050;38.164;2023-03-23T08:45:43;15.45;59.71
75685;HTU21D;64298;46.050;38.164;2023-03-23T08:48:34;15.57;59.86
75685;HTU21D;64298;46.050;38.164;2023-03-23T08:51:05;15.67;59.76
75685;HTU21D;64298;46.050;38.164;2023-03-23T08:53:52;15.85;59.55
75685;HTU21D;64298;46.050;38.164;2023-03-23T08:56:53;16.06;59.18
75685;HTU21D;64298;46.050;38.164;2023-03-23T08:59:29;16.21;58.83
75685;HTU21D;64298;46.050;38.164;2023-03-23T09:02:24;16.40;58.42
75685;HTU21D;64298;46.050;38.164;2023-03-23T09:04:55;16.49;57.74
75685;HTU21D;64298;46.050;38.164;2023-03-23T09:07:43;16.54;57.72
75685;HTU21D;64298;46.050;38.164;2023-03-23T09:10:09;16.58;57.41
75685;HTU21D;64298;46.050;38.164;2023-03-23T09:12:36;16.60;57.45
75685;HTU21D;64298;46.050;38.164;2023-03-23T09:15:04;16.70;57.83
75685;HTU21D;64298;46.050;38.164;2023-03-23T09:17:39;16.75;56.90
75685;HTU21D;64298;46.050;38.164;2023-03-23T09:20:06;16.74;56.90
75685;HTU21D;64298;46.050;38.164;2023-03-23T09:22:40;16.82;57.10
75685;HTU21D;64298;46.050;38.164;2023-03-23T09:25:08;16.93;57.06
75685;HTU21D;64298;46.050;38.164;2023-03-23T09:27:35;17.06;56.36
75685;HTU21D;64298;46.050;38.164;2023-03-23T09:30:11;17.11;56.24
75685;HTU21D;64298;46.050;38.164;2023-03-23T09:32:57;17.15;55.88
75685;HTU21D;64298;46.050;38.164;2023-03-23T09:35:24;17.16;55.79
75685;HTU21D;64298;46.050;38.164;2023-03-23T09:37:51;17.11;55.72
75685;HTU21D;64298;46.050;38.164;2023-03-23T09:40:21;17.14;55.77
75685;HTU21D;64298;46.050;38.164;2023-03-23T09:43:16;17.24;55.65
75685;HTU21D;64298;46.050;38.164;2023-03-23T09:51:19;17.69;54.71
75685;HTU21D;64298;46.050;38.164;2023-03-23T09:53:50;17.65;54.43
75685;HTU21D;64298;46.050;38.164;2023-03-23T09:56:17;17.64;54.78
75685;HTU21D;64298;46.050;38.164;2023-03-23T09:58:58;17.82;54.71
75685;HTU21D;64298;46.050;38.164;2023-03-23T10:01:36;18.02;53.71
75685;HTU21D;64298;46.050;38.164;2023-03-23T10:04:25;18.07;52.56
75685;HTU21D;64298;46.050;38.164;2023-03-23T10:06:58;18.09;52.61
75685;HTU21D;64298;46.050;38.164;2023-03-23T10:09:26;18.12;51.95
75685;HTU21D;64298;46.050;38.164;2023-03-23T10:12:16;18.15;52.34
75685;HTU21D;64298;46.050;38.164;2023-03-23T10:17:28;18.39;52.14
75685;HTU21D;64298;46.050;38.164;2023-03-23T10:22:40;18.59;50.96
75685;HTU21D;64298;46.050;38.164;2023-03-23T10:27:56;18.71;50.70
75685;HTU21D;64298;46.050;38.164;2023-03-23T10:30:42;18.72;50.30
75685;HTU21D;64298;46.050;38.164;2023-03-23T10:33:20;18.61;49.56
75685;HTU21D;64298;46.050;38.164;2023-03-23T10:36:07;18.44;50.44
75685;HTU21D;64298;46.050;38.164;2023-03-23T10:41:06;18.25;50.34
75685;HTU21D;64298;46.050;38.164;2023-03-23T10:43:35;18.18;50.46
75685;HTU21D;64298;46.050;38.164;2023-03-23T10:46:05;18.12;50.18
75685;HTU21D;64298;46.050;38.164;2023-03-23T10:48:37;18.07;50.35
75685;HTU21D;64298;46.050;38.164;2023-03-23T10:51:09;18.03;50.56
75685;HTU21D;64298;46.050;38.164;2023-03-23T10:53:49;17.96;50.72
75685;HTU21D;64298;46.050;38.164;2023-03-23T10:56:25;17.92;50.79
75685;HTU21D;64298;46.050;38.164;2023-03-23T10:58:51;17.94;50.96
75685;HTU21D;64298;46.050;38.164;2023-03-23T11:01:30;17.95;50.98
75685;HTU21D;64298;46.050;38.164;2023-03-23T11:03:57;18.02;50.71
75685;HTU21D;64298;46.050;38.164;2023-03-23T11:06:27;18.06;50.51
75685;HTU21D;64298;46.050;38.164;2023-03-23T11:09:14;18.14;50.40
75685;HTU21D;64298;46.050;38.164;2023-03-23T11:11:50;18.27;49.50
75685;HTU21D;64298;46.050;38.164;2023-03-23T11:14:36;18.39;49.35
75685;HTU21D;64298;46.050;38.164;2023-03-23T11:17:18;18.50;49.27
75685;HTU21D;64298;46.050;38.164;2023-03-23T11:19:45;18.61;49.37
75685;HTU21D;64298;46.050;38.164;2023-03-23T11:26:10;18.65;48.64
75685;HTU21D;64298;46.050;38.164;2023-03-23T11:31:34;18.58;48.68
75685;HTU21D;64298;46.050;38.164;2023-03-23T11:34:13;18.55;48.62
75685;HTU21D;64298;46.050;38.164;2023-03-23T11:39:45;18.54;47.76
75685;HTU21D;64298;46.050;38.164;2023-03-23T11:42:18;18.52;48.05
75685;HTU21D;64298;46.050;38.164;2023-03-23T11:44:44;18.49;47.83
75685;HTU21D;64298;46.050;38.164;2023-03-23T11:47:42;18.46;48.68
75685;HTU21D;64298;46.050;38.164;2023-03-23T11:50:26;18.49;48.33
75685;HTU21D;64298;46.050;38.164;2023-03-23T11:55:55;18.39;48.85
75685;HTU21D;64298;46.050;38.164;2023-03-23T11:58:22;18.37;48.77
75685;HTU21D;64298;46.050;38.164;2023-03-23T12:00:56;18.29;48.60
75685;HTU21D;64298;46.050;38.164;2023-03-23T12:06:38;18.18;49.48
75685;HTU21D;64298;46.050;38.164;2023-03-23T12:12:14;18.05;51.33
75685;HTU21D;64298;46.050;38.164;2023-03-23T12:14:48;17.97;52.12
75685;HTU21D;64298;46.050;38.164;2023-03-23T12:23:06;17.79;53.07
75685;HTU21D;64298;46.050;38.164;2023-03-23T12:28:21;17.80;52.86
75685;HTU21D;64298;46.050;38.164;2023-03-23T12:31:04;17.82;52.94
75685;HTU21D;64298;46.050;38.164;2023-03-23T12:36:37;17.76;52.89
75685;HTU21D;64298;46.050;38.164;2023-03-23T12:44:54;17.74;52.88
75685;HTU21D;64298;46.050;38.164;2023-03-23T12:47:46;17.75;52.99
75685;HTU21D;64298;46.050;38.164;2023-03-23T12:50:34;17.78;52.80
75685;HTU21D;64298;46.050;38.164;2023-03-23T12:53:18;17.80;52.52
75685;HTU21D;64298;46.050;38.164;2023-03-23T12:55:48;17.83;52.42
75685;HTU21D;64298;46.050;38.164;2023-03-23T12:58:20;17.82;52.41
75685;HTU21D;64298;46.050;38.164;2023-03-23T13:01:07;17.81;52.40
75685;HTU21D;64298;46.050;38.164;2023-03-23T13:03:54;17.81;52.40
75685;HTU21D;64298;46.050;38.164;2023-03-23T13:11:58;17.67;52.74
75685;HTU21D;64298;46.050;38.164;2023-03-23T13:20:34;17.52;52.71
75685;HTU21D;64298;46.050;38.164;2023-03-23T13:28:02;17.35;53.03
75685;HTU21D;64298;46.050;38.164;2023-03-23T13:30:29;17.34;53.15
75685;HTU21D;64298;46.050;38.164;2023-03-23T13:33:04;17.29;52.90
75685;HTU21D;64298;46.050;38.164;2023-03-23T13:35:37;17.25;52.91
75685;HTU21D;64298;46.050;38.164;2023-03-23T13:38:26;17.23;53.04
75685;HTU21D;64298;46.050;38.164;2023-03-23T13:40:54;17.21;52.94
75685;HTU21D;64298;46.050;38.164;2023-03-23T13:43:32;17.20;53.12
75685;HTU21D;64298;46.050;38.164;2023-03-23T13:46:09;17.21;53.28
75685;HTU21D;64298;46.050;38.164;2023-03-23T13:48:42;17.21;53.42
75685;HTU21D;64298;46.050;38.164;2023-03-23T13:57:02;17.19;53.49
75685;HTU21D;64298;46.050;38.164;2023-03-23T13:59:35;17.19;53.60
75685;HTU21D;64298;46.050;38.164;2023-03-23T14:02:37;17.21;53.78
75685;HTU21D;64298;46.050;38.164;2023-03-23T14:05:51;17.21;53.84
75685;HTU21D;64298;46.050;38.164;2023-03-23T14:10:57;17.15;54.11
75685;HTU21D;64298;46.050;38.164;2023-03-23T14:13:33;17.14;54.28
75685;HTU21D;64298;46.050;38.164;2023-03-23T14:16:04;17.14;54.38
75685;HTU21D;64298;46.050;38.164;2023-03-23T14:18:37;17.11;54.49
75685;HTU21D;64298;46.050;38.164;2023-03-23T14:21:04;17.11;54.66
75685;HTU21D;64298;46.050;38.164;2023-03-23T14:23:32;17.08;54.81
75685;HTU21D;64298;46.050;38.164;2023-03-23T14:26:05;17.06;55.02
75685;HTU21D;64298;46.050;38.164;2023-03-23T14:28:38;17.03;55.49
75685;HTU21D;64298;46.050;38.164;2023-03-23T14:31:08;16.99;55.74
75685;HTU21D;64298;46.050;38.164;2023-03-23T14:33:38;16.95;55.91
75685;HTU21D;64298;46.050;38.164;2023-03-23T14:36:07;16.90;56.10
75685;HTU21D;64298;46.050;38.164;2023-03-23T14:38:33;16.87;56.29
75685;HTU21D;64298;46.050;38.164;2023-03-23T14:41:01;16.81;56.32
75685;HTU21D;64298;46.050;38.164;2023-03-23T14:43:28;16.78;56.23
75685;HTU21D;64298;46.050;38.164;2023-03-23T14:45:56;16.78;56.19
75685;HTU21D;64298;46.050;38.164;2023-03-23T14:48:23;16.75;56.23
75685;HTU21D;64298;46.050;38.164;2023-03-23T14:51:00;16.73;56.22
75685;HTU21D;64298;46.050;38.164;2023-03-23T14:53:39;16.71;56.26
75685;HTU21D;64298;46.050;38.164;2023-03-23T14:56:13;16.67;56.53
75685;HTU21D;64298;46.050;38.164;2023-03-23T14:58:48;16.63;56.83
75685;HTU21D;64298;46.050;38.164;2023-03-23T15:01:27;16.57;57.04
75685;HTU21D;64298;46.050;38.164;2023-03-23T15:04:04;16.54;57.22
75685;HTU21D;64298;46.050;38.164;2023-03-23T15:06:34;16.50;57.39
75685;HTU21D;64298;46.050;38.164;2023-03-23T15:09:13;16.45;57.63
75685;HTU21D;64298;46.050;38.164;2023-03-23T15:11:41;16.39;57.66
75685;HTU21D;64298;46.050;38.164;2023-03-23T15:14:20;16.35;57.71
75685;HTU21D;64298;46.050;38.164;2023-03-23T15:16:50;16.31;57.74
75685;HTU21D;64298;46.050;38.164;2023-03-23T15:19:47;16.28;58.05
75685;HTU21D;64298;46.050;38.164;2023-03-23T15:24:53;16.20;58.90
75685;HTU21D;64298;46.050;38.164;2023-03-23T15:27:29;16.15;59.33
75685;HTU21D;64298;46.050;38.164;2023-03-23T15:30:11;16.11;59.64
75685;HTU21D;64298;46.050;38.164;2023-03-23T15:33:08;16.06;59.84
75685;HTU21D;64298;46.050;38.164;2023-03-23T15:35:38;16.03;60.17
75685;HTU21D;64298;46.050;38.164;2023-03-23T15:38:06;15.95;60.39
75685;HTU21D;64298;46.050;38.164;2023-03-23T15:40:38;15.90;60.70
75685;HTU21D;64298;46.050;38.164;2023-03-23T15:43:20;15.86;60.85
75685;HTU21D;64298;46.050;38.164;2023-03-23T15:45:58;15.81;61.04
75685;HTU21D;64298;46.050;38.164;2023-03-23T15:48:33;15.76;61.14
75685;HTU21D;64298;46.050;38.164;2023-03-23T15:51:02;15.70;61.39
75685;HTU21D;64298;46.050;38.164;2023-03-23T15:53:34;15.66;61.50
75685;HTU21D;64298;46.050;38.164;2023-03-23T15:56:01;15.65;61.54
75685;HTU21D;64298;46.050;38.164;2023-03-23T15:58:29;15.61;61.68
75685;HTU21D;64298;46.050;38.164;2023-03-23T16:00:56;15.57;61.80
75685;HTU21D;64298;46.050;38.164;2023-03-23T16:03:37;15.56;61.89
75685;HTU21D;64298;46.050;38.164;2023-03-23T16:06:04;15.53;61.83
75685;HTU21D;64298;46.050;38.164;2023-03-23T16:08:30;15.52;61.84
75685;HTU21D;64298;46.050;38.164;2023-03-23T16:10:56;15.53;61.83
75685;HTU21D;64298;46.050;38.164;2023-03-23T16:13:22;15.53;61.79
75685;HTU21D;64298;46.050;38.164;2023-03-23T16:15:48;15.52;61.78
75685;HTU21D;64298;46.050;38.164;2023-03-23T16:18:17;15.53;61.78
75685;HTU21D;64298;46.050;38.164;2023-03-23T16:20:44;15.52;61.78
75685;HTU21D;64298;46.050;38.164;2023-03-23T16:23:10;15.49;61.85
75685;HTU21D;64298;46.050;38.164;2023-03-23T16:25:36;15.49;61.89
75685;HTU21D;64298;46.050;38.164;2023-03-23T16:28:02;15.47;61.97
75685;HTU21D;64298;46.050;38.164;2023-03-23T16:30:32;15.47;61.97
75685;HTU21D;64298;46.050;38.164;2023-03-23T16:32:58;15.45;61.95
75685;HTU21D;64298;46.050;38.164;2023-03-23T16:35:25;15.43;61.89
75685;HTU21D;64298;46.050;38.164;2023-03-23T16:37:53;15.41;61.84
75685;HTU21D;64298;46.050;38.164;2023-03-23T16:40:19;15.41;61.74
75685;HTU21D;64298;46.050;38.164;2023-03-23T16:43:04;15.39;61.58
75685;HTU21D;64298;46.050;38.164;2023-03-23T16:45:30;15.39;61.54
75685;HTU21D;64298;46.050;38.164;2023-03-23T16:47:56;15.39;61.51
75685;HTU21D;64298;46.050;38.164;2023-03-23T16:50:30;15.38;61.44
75685;HTU21D;64298;46.050;38.164;2023-03-23T16:52:56;15.38;61.28
75685;HTU21D;64298;46.050;38.164;2023-03-23T16:55:22;15.38;61.18
75685;HTU21D;64298;46.050;38.164;2023-03-23T16:57:50;15.38;61.05
75685;HTU21D;64298;46.050;38.164;2023-03-23T17:00:17;15.38;60.96
75685;HTU21D;64298;46.050;38.164;2023-03-23T17:02:48;15.38;60.92
75685;HTU21D;64298;46.050;38.164;2023-03-23T17:05:20;15.37;60.93
75685;HTU21D;64298;46.050;38.164;2023-03-23T17:07:47;15.34;60.94
75685;HTU21D;64298;46.050;38.164;2023-03-23T17:10:15;15.32;60.96
75685;HTU21D;64298;46.050;38.164;2023-03-23T17:12:41;15.31;61.03
75685;HTU21D;64298;46.050;38.164;2023-03-23T17:15:08;15.29;61.16
75685;HTU21D;64298;46.050;38.164;2023-03-23T17:17:34;15.26;61.27
75685;HTU21D;64298;46.050;38.164;2023-03-23T17:20:01;15.24;61.33
75685;HTU21D;64298;46.050;38.164;2023-03-23T17:22:27;15.22;61.42
75685;HTU21D;64298;46.050;38.164;2023-03-23T17:24:53;15.19;61.50